Time;durP1;ratioP1;P1;durP2;ratioP2;P2;SDS_P1;SDS_P2;PMS_P1;PMS_P2;Temp;Humidity;BMP_temperature;BMP_pressure;BME280_temperature;BME280_humidity;BME280_pressure;Samples;Min_cycle;Max_cycle;Signal;HPM_P1;HPM_P2
2021/12/13 00:00:25;;;;;;;10.30;8.03;;;3.20;99.90;;;;;;5035249;28;20257;-89
2021/12/13 00:03:04;;;;;;;11.03;8.50;;;3.30;99.90;;;;;;5035315;28;20179;-90
2021/12/13 00:05:36;;;;;;;10.70;8.80;;;3.30;99.90;;;;;;5033747;28;20177;-91
2021/12/13 00:08:07;;;;;;;11.17;8.67;;;3.30;99.90;;;;;;5033672;28;20213;-89
2021/12/13 00:10:48;;;;;;;12.50;8.20;;;3.40;99.90;;;;;;5035084;28;20165;-90
2021/12/13 00:13:20;;;;;;;11.47;8.30;;;3.40;99.90;;;;;;5037112;28;20232;-89
2021/12/13 00:15:59;;;;;;;11.47;8.57;;;3.40;99.90;;;;;;5036185;28;20206;-90
2021/12/13 00:18:31;;;;;;;12.83;8.70;;;3.40;99.90;;;;;;5033764;28;20186;-89
2021/12/13 00:21:12;;;;;;;10.53;8.30;;;3.40;99.90;;;;;;5033573;28;20213;-90
2021/12/13 00:23:43;;;;;;;8.83;7.80;;;3.40;99.90;;;;;;5034563;28;20163;-89
2021/12/13 00:26:09;;;;;;;12.97;7.97;;;3.50;99.90;;;;;;5034632;28;20165;-89
2021/12/13 00:28:39;;;;;;;10.63;8.30;;;3.40;99.90;;;;;;5034456;28;20196;-88
2021/12/13 00:31:39;;;;;;;11.10;8.50;;;3.40;99.90;;;;;;5034560;28;20175;-88
2021/12/13 00:34:29;;;;;;;10.27;8.17;;;3.50;99.90;;;;;;5034699;28;20200;-90
2021/12/13 00:37:09;;;;;;;11.40;8.10;;;3.40;99.90;;;;;;5033440;28;20176;-90
2021/12/13 00:39:46;;;;;;;9.27;8.20;;;3.50;99.90;;;;;;5033376;28;20602;-90
2021/12/13 00:42:13;;;;;;;8.97;7.67;;;3.50;99.90;;;;;;5033062;28;20243;-90
2021/12/13 00:44:52;;;;;;;10.07;7.40;;;3.50;99.90;;;;;;5033274;28;20190;-90
2021/12/13 00:47:22;;;;;;;10.90;7.70;;;3.50;99.90;;;;;;5043735;28;20218;-90
2021/12/13 00:49:53;;;;;;;9.17;7.90;;;3.50;99.90;;;;;;5056690;28;20149;-88
2021/12/13 00:52:20;;;;;;;9.40;7.70;;;3.50;99.90;;;;;;5047979;28;20180;-90
2021/12/13 00:54:47;;;;;;;9.13;7.93;;;3.50;99.90;;;;;;5055270;28;20156;-90
2021/12/13 00:57:31;;;;;;;9.87;8.03;;;3.60;99.90;;;;;;5039978;28;20222;-89
2021/12/13 01:00:06;;;;;;;9.50;7.77;;;3.60;99.90;;;;;;5034159;28;20183;-89
2021/12/13 01:02:42;;;;;;;8.33;7.23;;;3.50;99.90;;;;;;5038003;28;20167;-89
2021/12/13 01:05:37;;;;;;;10.50;8.03;;;3.50;99.90;;;;;;5038303;28;20179;-89
2021/12/13 01:08:31;;;;;;;8.90;7.40;;;3.50;99.90;;;;;;5046537;28;20214;-89
2021/12/13 01:11:36;;;;;;;8.33;7.30;;;3.50;99.90;;;;;;5046677;28;20197;-89
2021/12/13 01:14:17;;;;;;;9.10;7.20;;;3.60;99.90;;;;;;5034176;28;20233;-89
2021/12/13 01:17:00;;;;;;;9.00;7.37;;;3.50;99.90;;;;;;5032639;28;20200;-89
2021/12/13 01:19:54;;;;;;;10.80;7.03;;;3.60;99.90;;;;;;5032370;28;20640;-90
2021/12/13 01:25:25;;;;;;;8.70;7.10;;;3.50;99.90;;;;;;5034958;28;20180;-90
2021/12/13 01:28:03;;;;;;;9.67;7.00;;;3.50;99.90;;;;;;5033762;28;20259;-90
2021/12/13 01:30:38;;;;;;;9.33;7.30;;;3.40;99.90;;;;;;5033623;28;20158;-89
2021/12/13 01:33:09;;;;;;;10.20;7.30;;;3.50;99.90;;;;;;5031970;28;20178;-90
2021/12/13 01:35:42;;;;;;;8.97;7.20;;;3.50;99.90;;;;;;5033331;28;20182;-90
2021/12/13 01:38:21;;;;;;;7.43;6.57;;;3.50;99.90;;;;;;5036466;28;20224;-90
2021/12/13 01:40:51;;;;;;;8.77;6.97;;;3.50;99.90;;;;;;5046766;28;20179;-90
2021/12/13 01:43:24;;;;;;;8.93;7.43;;;3.50;99.90;;;;;;5040552;28;20579;-91
2021/12/13 01:45:52;;;;;;;9.47;8.13;;;3.60;99.90;;;;;;5034339;28;20186;-89
2021/12/13 01:48:26;;;;;;;11.33;8.20;;;3.60;99.90;;;;;;5032986;28;20215;-90
2021/12/13 01:51:04;;;;;;;10.17;7.93;;;3.60;99.90;;;;;;5031945;28;20175;-90
2021/12/13 01:53:44;;;;;;;9.93;8.07;;;3.50;99.90;;;;;;5032791;28;20299;-90
2021/12/13 02:02:14;;;;;;;8.10;6.87;;;3.50;99.90;;;;;;5033195;28;20187;-89
2021/12/13 02:04:42;;;;;;;8.67;7.60;;;3.50;99.90;;;;;;5036059;28;20176;-89
2021/12/13 02:07:09;;;;;;;8.47;7.30;;;3.50;99.90;;;;;;5030869;28;20219;-88
2021/12/13 02:09:45;;;;;;;8.47;7.50;;;3.50;99.90;;;;;;5032234;28;20183;-88
2021/12/13 02:12:18;;;;;;;8.03;7.23;;;3.60;99.90;;;;;;5030925;28;20206;-89
2021/12/13 02:16:56;;;;;;;9.00;7.23;;;3.60;99.90;;;;;;5032369;28;20205;-90
2021/12/13 02:17:40;;;;;;;9.20;7.27;;;3.60;99.90;;;;;;5032503;28;20650;-89
2021/12/13 02:20:14;;;;;;;8.70;6.70;;;3.70;99.90;;;;;;5030661;28;20980;-90
2021/12/13 02:22:53;;;;;;;9.50;7.60;;;3.70;99.90;;;;;;5032477;28;20171;-89
2021/12/13 02:25:39;;;;;;;9.47;7.67;;;3.70;99.90;;;;;;5031175;28;20183;-90
2021/12/13 02:28:09;;;;;;;8.63;7.73;;;3.70;99.90;;;;;;5033618;28;20256;-89
2021/12/13 02:30:43;;;;;;;9.40;7.37;;;3.70;99.90;;;;;;5044659;28;20179;-90
2021/12/13 02:33:13;;;;;;;9.90;7.77;;;3.60;99.90;;;;;;5049310;28;20240;-90
2021/12/13 02:35:43;;;;;;;9.97;7.67;;;3.70;99.90;;;;;;5044685;28;20183;-91
2021/12/13 02:38:11;;;;;;;8.53;7.07;;;3.60;99.90;;;;;;5046312;28;20259;-89
2021/12/13 02:40:37;;;;;;;9.00;7.80;;;3.60;99.90;;;;;;5047505;28;20187;-89
2021/12/13 02:43:06;;;;;;;9.97;8.33;;;3.60;99.90;;;;;;5056544;28;20232;-89
2021/12/13 02:45:42;;;;;;;9.23;7.57;;;3.60;99.90;;;;;;5038704;28;20180;-89
2021/12/13 02:48:26;;;;;;;9.13;8.03;;;3.60;99.90;;;;;;5033711;28;20253;-88
2021/12/13 02:51:07;;;;;;;9.53;7.97;;;3.60;99.90;;;;;;5030559;28;20190;-89
2021/12/13 02:53:56;;;;;;;8.57;7.30;;;3.60;99.90;;;;;;5030276;28;20297;-89
2021/12/13 02:56:27;;;;;;;10.33;8.73;;;3.60;99.90;;;;;;5030259;28;20173;-90
2021/12/13 02:58:54;;;;;;;10.47;8.70;;;3.50;99.90;;;;;;5030223;28;20544;-89
2021/12/13 03:01:46;;;;;;;9.50;8.13;;;3.60;99.90;;;;;;5030555;28;20184;-89
2021/12/13 03:04:18;;;;;;;13.27;8.97;;;3.70;99.90;;;;;;5029437;28;20196;-90
2021/12/13 03:06:55;;;;;;;8.87;7.90;;;3.70;99.90;;;;;;5030717;28;20183;-89
2021/12/13 03:09:26;;;;;;;11.67;8.63;;;3.60;99.90;;;;;;5031058;28;20185;-89
2021/12/13 03:11:53;;;;;;;11.80;8.40;;;3.60;99.90;;;;;;5030283;28;20166;-89
2021/12/13 03:14:23;;;;;;;10.97;8.67;;;3.60;99.90;;;;;;5030015;28;20547;-90
2021/12/13 03:17:00;;;;;;;9.60;7.73;;;3.60;99.90;;;;;;5029891;28;20179;-90
2021/12/13 03:19:34;;;;;;;9.27;7.97;;;3.50;99.90;;;;;;5031489;28;20169;-89
2021/12/13 03:22:37;;;;;;;11.70;8.47;;;3.50;99.90;;;;;;5030152;28;20665;-89
2021/12/13 03:25:15;;;;;;;13.50;8.10;;;3.40;99.90;;;;;;5029913;28;20184;-90
2021/12/13 03:28:14;;;;;;;10.97;9.00;;;3.60;99.90;;;;;;5031103;28;20298;-89
2021/12/13 03:30:49;;;;;;;12.97;8.67;;;3.50;99.90;;;;;;5029549;28;20917;-90
2021/12/13 03:33:20;;;;;;;9.43;7.50;;;3.50;99.90;;;;;;5030024;28;20242;-89
2021/12/13 03:35:54;;;;;;;11.13;7.87;;;3.40;99.90;;;;;;5031484;28;20250;-88
2021/12/13 03:38:26;;;;;;;11.40;8.60;;;3.40;99.90;;;;;;5031127;28;20176;-89
2021/12/13 03:40:56;;;;;;;8.90;7.40;;;3.30;99.90;;;;;;5031909;28;20199;-89
2021/12/13 03:43:47;;;;;;;12.07;8.63;;;3.40;99.90;;;;;;5031054;28;20588;-89
2021/12/13 03:46:15;;;;;;;11.07;8.47;;;3.40;99.90;;;;;;5029669;28;20268;-89
2021/12/13 03:48:43;;;;;;;9.57;8.13;;;3.40;99.90;;;;;;5030963;28;20203;-89
2021/12/13 03:51:13;;;;;;;12.37;8.83;;;3.40;99.90;;;;;;5038311;28;20621;-88
2021/12/13 03:53:42;;;;;;;12.10;8.27;;;3.50;99.90;;;;;;5041358;28;20572;-89
2021/12/13 03:56:12;;;;;;;11.43;8.20;;;3.50;99.90;;;;;;5044336;28;20178;-89
2021/12/13 03:58:44;;;;;;;10.53;8.00;;;3.50;99.90;;;;;;5034220;28;20187;-88
2021/12/13 04:01:27;;;;;;;12.90;8.27;;;3.50;99.90;;;;;;5031263;28;20206;-89
2021/12/13 04:03:58;;;;;;;10.63;8.67;;;3.50;99.90;;;;;;5035610;28;20178;-89
2021/12/13 04:06:24;;;;;;;10.03;8.43;;;3.60;99.90;;;;;;5030270;28;20260;-88
2021/12/13 04:08:54;;;;;;;10.27;7.87;;;3.60;99.90;;;;;;5030711;28;20218;-90
2021/12/13 04:11:23;;;;;;;8.37;7.33;;;3.60;99.90;;;;;;5031165;28;20168;-89
2021/12/13 04:13:56;;;;;;;10.97;8.40;;;3.60;99.90;;;;;;5030193;28;20192;-89
2021/12/13 04:17:19;;;;;;;8.60;7.20;;;3.60;99.90;;;;;;5045924;28;20163;-89
2021/12/13 04:19:21;;;;;;;8.80;6.93;;;3.60;99.90;;;;;;5039752;28;20211;-90
2021/12/13 04:22:00;;;;;;;10.43;7.90;;;3.60;99.90;;;;;;5034668;28;20866;-88
2021/12/13 04:24:49;;;;;;;8.43;7.23;;;3.60;99.90;;;;;;5046261;28;20168;-90
2021/12/13 04:27:22;;;;;;;10.47;7.43;;;3.60;99.90;;;;;;5048547;28;20225;-89
2021/12/13 04:29:54;;;;;;;8.13;7.10;;;3.70;99.90;;;;;;5055564;28;20191;-89
2021/12/13 04:32:28;;;;;;;8.47;7.30;;;3.70;99.90;;;;;;5054505;28;20188;-90
2021/12/13 04:34:57;;;;;;;8.60;7.30;;;3.70;99.90;;;;;;5056073;28;20168;-89
2021/12/13 04:37:26;;;;;;;7.67;6.63;;;3.80;99.90;;;;;;5044463;28;20182;-90
2021/12/13 04:39:58;;;;;;;6.73;6.00;;;3.70;99.90;;;;;;5031908;28;20237;-90
2021/12/13 04:42:29;;;;;;;7.33;6.07;;;3.70;99.90;;;;;;5033492;28;20228;-90
2021/12/13 04:45:10;;;;;;;8.00;6.80;;;3.70;99.90;;;;;;5035061;28;20173;-89
2021/12/13 04:47:44;;;;;;;8.37;6.23;;;3.70;99.90;;;;;;5032828;28;20290;-89
2021/12/13 04:50:17;;;;;;;6.33;5.73;;;3.70;99.90;;;;;;5034813;28;20159;-90
2021/12/13 04:52:45;;;;;;;7.83;6.30;;;3.70;99.90;;;;;;5034772;28;20199;-90
2021/12/13 04:55:24;;;;;;;6.43;5.63;;;3.70;99.90;;;;;;5033123;28;20595;-90
2021/12/13 04:57:53;;;;;;;9.13;6.70;;;3.70;99.90;;;;;;5032779;28;20176;-90
2021/12/13 05:00:21;;;;;;;7.53;6.37;;;3.70;99.90;;;;;;5034737;28;20171;-89
2021/12/13 05:02:51;;;;;;;6.57;5.53;;;3.60;99.90;;;;;;5035202;28;20181;-90
2021/12/13 05:05:18;;;;;;;6.73;5.50;;;3.60;99.90;;;;;;5040695;28;20183;-90
2021/12/13 05:07:46;;;;;;;6.90;5.70;;;3.70;99.90;;;;;;5033497;28;20821;-90
2021/12/13 05:10:14;;;;;;;6.73;5.87;;;3.70;99.90;;;;;;5032473;28;20252;-90
2021/12/13 05:12:40;;;;;;;7.83;6.23;;;3.70;99.90;;;;;;5033628;28;20196;-89
2021/12/13 05:15:10;;;;;;;6.27;5.17;;;3.70;99.90;;;;;;5047537;28;20179;-89
2021/12/13 05:17:41;;;;;;;7.83;5.93;;;3.80;99.90;;;;;;5050548;28;20178;-88
2021/12/13 05:20:22;;;;;;;5.67;5.07;;;3.80;99.90;;;;;;5039450;28;20253;-90
2021/12/13 05:23:01;;;;;;;6.67;5.23;;;3.70;99.90;;;;;;5015005;28;20169;-89
2021/12/13 05:25:33;;;;;;;5.53;4.40;;;3.70;99.90;;;;;;5031916;28;20188;-89
2021/12/13 05:28:16;;;;;;;5.40;4.50;;;3.80;99.90;;;;;;5032891;28;20211;-89
2021/12/13 05:30:54;;;;;;;5.10;4.60;;;3.70;99.90;;;;;;5031915;28;20190;-89
2021/12/13 05:33:21;;;;;;;4.70;4.30;;;3.70;99.90;;;;;;5033546;28;20163;-90
2021/12/13 05:35:51;;;;;;;5.70;4.83;;;3.70;99.90;;;;;;5033019;28;20726;-89
2021/12/13 05:38:30;;;;;;;4.80;4.40;;;3.80;99.90;;;;;;5032179;28;20191;-90
2021/12/13 05:40:59;;;;;;;5.83;4.70;;;3.70;99.90;;;;;;5032339;28;20174;-89
2021/12/13 05:43:33;;;;;;;6.37;5.77;;;3.70;99.90;;;;;;5033068;28;20242;-90
2021/12/13 05:46:12;;;;;;;6.00;4.90;;;3.70;99.90;;;;;;5032485;28;20191;-89
2021/12/13 05:48:43;;;;;;;5.20;4.70;;;3.80;99.90;;;;;;5032847;28;20208;-90
2021/12/13 05:51:25;;;;;;;5.47;4.80;;;3.80;99.90;;;;;;5033142;28;20172;-90
2021/12/13 05:54:09;;;;;;;5.27;4.77;;;3.80;99.90;;;;;;5032895;28;20164;-89
2021/12/13 05:56:42;;;;;;;4.90;4.50;;;3.80;99.90;;;;;;5032441;28;20183;-90
2021/12/13 05:59:19;;;;;;;5.90;4.57;;;3.80;99.90;;;;;;5034684;28;20175;-90
2021/12/13 06:02:33;;;;;;;8.43;4.33;;;3.70;99.90;;;;;;5031819;28;20191;-90
2021/12/13 06:05:36;;;;;;;4.77;4.37;;;3.60;99.90;;;;;;5010594;28;20183;-90
2021/12/13 06:08:19;;;;;;;5.80;4.60;;;3.70;99.90;;;;;;5022812;28;20222;-89
2021/12/13 06:10:56;;;;;;;4.90;4.40;;;3.70;99.90;;;;;;5046260;28;20662;-89
2021/12/13 06:13:42;;;;;;;4.43;4.03;;;3.80;99.90;;;;;;5050960;28;20160;-89
2021/12/13 06:16:23;;;;;;;4.70;4.33;;;3.70;99.90;;;;;;5037604;28;20188;-89
2021/12/13 06:18:57;;;;;;;4.90;4.40;;;3.80;99.90;;;;;;5033193;28;20179;-89
2021/12/13 06:21:45;;;;;;;5.13;4.63;;;3.80;99.90;;;;;;5031801;28;20201;-90
2021/12/13 06:24:12;;;;;;;5.97;4.60;;;3.80;99.90;;;;;;5013080;28;20233;-89
2021/12/13 06:26:40;;;;;;;5.13;4.63;;;3.70;99.90;;;;;;5027339;28;20184;-90
2021/12/13 06:29:08;;;;;;;5.20;4.70;;;3.70;99.90;;;;;;5036724;28;20226;-90
2021/12/13 06:31:35;;;;;;;7.33;4.63;;;3.70;99.90;;;;;;5029958;28;20207;-90
2021/12/13 06:34:05;;;;;;;5.03;4.63;;;3.80;99.90;;;;;;5032736;28;20177;-90
2021/12/13 06:36:33;;;;;;;5.07;4.57;;;3.80;99.90;;;;;;5033357;28;20223;-89
2021/12/13 06:39:03;;;;;;;4.90;4.50;;;3.70;99.90;;;;;;5043128;28;20270;-90
2021/12/13 06:41:29;;;;;;;4.83;4.20;;;3.80;99.90;;;;;;5050664;28;20188;-90
2021/12/13 06:44:06;;;;;;;4.90;4.37;;;3.80;99.90;;;;;;5034448;28;20169;-90
2021/12/13 06:46:37;;;;;;;4.30;3.90;;;3.80;99.90;;;;;;5030931;28;20194;-90
2021/12/13 06:49:03;;;;;;;4.93;4.43;;;3.80;99.90;;;;;;5031055;28;20215;-90
2021/12/13 06:51:50;;;;;;;4.60;4.20;;;3.80;99.90;;;;;;5033248;28;20179;-91
2021/12/13 06:54:18;;;;;;;4.47;4.07;;;3.90;99.90;;;;;;5036853;28;20189;-88
2021/12/13 06:56:53;;;;;;;5.30;4.80;;;3.90;99.90;;;;;;5054205;28;20177;-89
2021/12/13 06:59:19;;;;;;;6.00;5.00;;;4.00;99.90;;;;;;5047250;28;20190;-89
2021/12/13 07:02:16;;;;;;;5.77;5.27;;;4.10;99.90;;;;;;5033711;28;20211;-90
2021/12/13 07:05:11;;;;;;;6.27;5.03;;;4.10;99.90;;;;;;5037173;28;20623;-90
2021/12/13 07:07:53;;;;;;;5.63;5.10;;;4.10;99.90;;;;;;5035583;28;20227;-90
2021/12/13 07:10:34;;;;;;;8.20;5.83;;;4.10;99.90;;;;;;5031974;28;20165;-90
2021/12/13 07:13:07;;;;;;;6.87;5.60;;;4.10;99.90;;;;;;5030234;28;20178;-89
2021/12/13 07:15:46;;;;;;;7.17;6.47;;;4.10;99.90;;;;;;5030649;28;20186;-90
2021/12/13 07:18:15;;;;;;;6.87;6.20;;;4.10;99.90;;;;;;5030643;28;20274;-90
2021/12/13 07:20:53;;;;;;;7.43;6.40;;;4.10;99.90;;;;;;5030706;28;20278;-90
2021/12/13 07:23:19;;;;;;;8.70;6.77;;;4.10;99.90;;;;;;5031002;28;20778;-90
2021/12/13 07:25:47;;;;;;;7.13;6.43;;;4.20;99.90;;;;;;5032299;28;20262;-90
2021/12/13 07:28:33;;;;;;;6.40;5.70;;;4.20;99.90;;;;;;5030632;28;20218;-91
2021/12/13 07:31:02;;;;;;;7.03;6.37;;;4.20;99.90;;;;;;5030602;28;20183;-89
2021/12/13 07:33:42;;;;;;;7.20;6.50;;;4.20;99.90;;;;;;5031463;28;20659;-91
2021/12/13 07:36:17;;;;;;;8.17;6.80;;;4.30;99.90;;;;;;5035125;28;20196;-88
2021/12/13 07:39:00;;;;;;;6.83;6.13;;;4.30;99.90;;;;;;5031269;28;20261;-89
2021/12/13 07:41:37;;;;;;;7.20;6.33;;;4.40;99.90;;;;;;5033585;28;20165;-89
2021/12/13 07:44:04;;;;;;;6.57;5.90;;;4.40;99.90;;;;;;5031271;28;20615;-90
2021/12/13 07:46:31;;;;;;;6.70;6.00;;;4.50;99.90;;;;;;5030548;28;20647;-89
2021/12/13 07:49:04;;;;;;;7.33;6.20;;;4.50;99.90;;;;;;5031881;28;20692;-90
2021/12/13 07:51:47;;;;;;;8.23;6.40;;;4.50;99.90;;;;;;5030288;28;20176;-90
2021/12/13 07:54:16;;;;;;;6.40;5.80;;;4.60;99.90;;;;;;5030809;28;20186;-89
2021/12/13 07:56:46;;;;;;;5.77;5.23;;;4.60;99.90;;;;;;5040183;28;20172;-90
2021/12/13 07:59:17;;;;;;;7.40;6.40;;;4.70;99.90;;;;;;5043012;28;20247;-90
2021/12/13 08:01:52;;;;;;;8.17;5.40;;;4.70;99.90;;;;;;5043526;28;20208;-88
2021/12/13 08:04:29;;;;;;;5.70;5.10;;;4.70;99.90;;;;;;5047411;28;20188;-94
2021/12/13 08:07:06;;;;;;;6.27;5.20;;;4.70;99.90;;;;;;5044420;28;20587;-93
2021/12/13 08:09:33;;;;;;;6.67;5.07;;;4.80;99.90;;;;;;5019215;28;20184;-94
2021/12/13 08:12:26;;;;;;;9.63;5.50;;;4.90;99.90;;;;;;5035590;28;20223;-93
2021/12/13 08:14:56;;;;;;;5.63;5.13;;;4.80;99.90;;;;;;5036958;28;20195;-93
2021/12/13 08:17:31;;;;;;;5.63;5.13;;;4.90;99.90;;;;;;5053291;28;20153;-93
2021/12/13 08:20:01;;;;;;;6.00;5.23;;;5.00;99.90;;;;;;5060441;28;20160;-93
2021/12/13 08:22:30;;;;;;;8.23;5.07;;;5.00;99.90;;;;;;5054687;28;20620;-91
2021/12/13 08:25:06;;;;;;;6.70;5.67;;;5.10;99.90;;;;;;5037910;28;20272;-93
2021/12/13 08:27:41;;;;;;;5.67;5.03;;;5.20;99.90;;;;;;5036712;28;20223;-93
2021/12/13 08:30:10;;;;;;;6.67;5.90;;;5.20;99.90;;;;;;5036695;28;20287;-93
2021/12/13 08:32:37;;;;;;;9.37;7.00;;;5.20;99.90;;;;;;5036563;28;20222;-93
2021/12/13 08:35:06;;;;;;;7.90;6.40;;;5.40;99.90;;;;;;5035584;28;20183;-93
2021/12/13 08:37:40;;;;;;;7.07;6.40;;;5.20;99.90;;;;;;5036361;28;20237;-93
2021/12/13 08:40:13;;;;;;;7.13;6.37;;;5.40;99.90;;;;;;5036668;28;20169;-92
2021/12/13 08:42:43;;;;;;;8.13;6.60;;;5.40;99.90;;;;;;5035804;28;20232;-93
2021/12/13 08:45:28;;;;;;;7.43;6.53;;;5.50;99.90;;;;;;5035793;28;20179;-93
2021/12/13 08:48:03;;;;;;;11.97;6.77;;;5.40;99.90;;;;;;5035981;28;20558;-93
2021/12/13 08:50:42;;;;;;;8.17;7.03;;;5.50;99.90;;;;;;5035961;28;20174;-93
2021/12/13 08:53:21;;;;;;;10.37;6.70;;;5.60;99.90;;;;;;5037065;28;20255;-93
2021/12/13 08:56:20;;;;;;;11.33;6.40;;;5.70;99.90;;;;;;5045651;28;20165;-92
2021/12/13 08:59:12;;;;;;;10.40;7.07;;;5.80;99.90;;;;;;5039598;28;20263;-93
2021/12/13 09:01:45;;;;;;;9.23;6.80;;;5.90;99.90;;;;;;5035620;28;20726;-93
2021/12/13 09:04:32;;;;;;;7.83;6.97;;;6.00;99.90;;;;;;5036255;28;20185;-94
2021/12/13 09:07:00;;;;;;;10.60;6.73;;;5.90;99.90;;;;;;5035978;28;20239;-93
2021/12/13 09:09:28;;;;;;;9.67;6.77;;;6.00;99.90;;;;;;5035874;28;20218;-93
2021/12/13 09:12:07;;;;;;;11.17;8.13;;;6.00;99.90;;;;;;5036560;28;20177;-93
2021/12/13 09:14:37;;;;;;;10.93;7.23;;;6.00;99.90;;;;;;5035831;28;20167;-94
2021/12/13 09:17:21;;;;;;;9.63;7.93;;;6.10;99.90;;;;;;5036287;28;20202;-92
2021/12/13 09:19:50;;;;;;;16.40;10.27;;;6.10;99.90;;;;;;5036200;28;20200;-93
2021/12/13 09:22:25;;;;;;;12.33;9.90;;;6.20;99.90;;;;;;5035348;28;20184;-93
2021/12/13 09:24:53;;;;;;;13.93;9.77;;;6.20;99.90;;;;;;5044316;28;20249;-93
2021/12/13 09:27:46;;;;;;;17.77;12.00;;;6.20;99.90;;;;;;5053589;28;20207;-92
2021/12/13 09:30:12;;;;;;;19.43;13.27;;;6.20;99.90;;;;;;5058521;28;20156;-92
2021/12/13 09:32:46;;;;;;;14.90;11.70;;;6.30;99.90;;;;;;5058512;28;20188;-92
2021/12/13 09:35:30;;;;;;;13.10;10.53;;;6.20;99.90;;;;;;5057285;28;20161;-92
2021/12/13 09:38:31;;;;;;;13.33;10.73;;;6.20;99.90;;;;;;5058719;28;20160;-92
2021/12/13 09:41:00;;;;;;;18.43;10.63;;;6.20;99.80;;;;;;4966430;28;20286;-93
2021/12/13 09:43:47;;;;;;;12.17;10.27;;;6.00;99.90;;;;;;4968758;28;20209;-93
2021/12/13 09:46:26;;;;;;;15.07;11.10;;;6.10;99.90;;;;;;4975519;28;20187;-93
2021/12/13 09:48:55;;;;;;;14.50;10.67;;;6.10;99.90;;;;;;4980549;28;20289;-93
2021/12/13 09:51:25;;;;;;;14.00;11.07;;;6.20;99.90;;;;;;4973011;28;20610;-92
2021/12/13 09:53:54;;;;;;;17.37;11.10;;;6.20;99.90;;;;;;4979401;28;20265;-92
2021/12/13 09:56:25;;;;;;;14.10;10.60;;;6.20;99.90;;;;;;4962419;28;20194;-92
2021/12/13 09:59:11;;;;;;;11.33;8.93;;;6.20;99.90;;;;;;4960694;28;20265;-93
2021/12/13 10:01:38;;;;;;;11.77;9.40;;;6.10;99.90;;;;;;4955558;28;20570;-93
2021/12/13 10:04:18;;;;;;;10.97;9.33;;;6.10;99.90;;;;;;4959105;28;20263;-91
2021/12/13 10:06:51;;;;;;;11.17;9.70;;;6.10;99.90;;;;;;4959641;28;20273;-93
2021/12/13 10:09:57;;;;;;;9.73;7.33;;;6.10;99.90;;;;;;4977526;28;20284;-92
2021/12/13 10:12:29;;;;;;;8.43;7.13;;;6.00;99.90;;;;;;4922410;29;20198;-93
2021/12/13 10:15:03;;;;;;;7.73;6.93;;;5.90;99.90;;;;;;4909815;29;20180;-92
2021/12/13 10:17:38;;;;;;;9.13;6.90;;;5.90;99.80;;;;;;4971196;28;20218;-93
2021/12/13 10:20:18;;;;;;;7.43;6.60;;;6.00;99.10;;;;;;4986366;28;20167;-92
2021/12/13 10:22:45;;;;;;;8.67;6.73;;;6.10;99.50;;;;;;4965343;28;20264;-93
2021/12/13 10:25:22;;;;;;;14.43;7.00;;;6.20;99.90;;;;;;4964025;28;20175;-92
2021/12/13 10:27:50;;;;;;;7.73;7.00;;;6.20;99.70;;;;;;4962194;28;20226;-93
2021/12/13 10:30:24;;;;;;;8.47;7.57;;;6.10;99.60;;;;;;4958434;28;20190;-94
2021/12/13 10:33:03;;;;;;;8.93;7.53;;;6.10;99.80;;;;;;4957948;28;20721;-92
2021/12/13 10:35:35;;;;;;;11.53;8.37;;;6.20;99.80;;;;;;4956756;28;20193;-91
2021/12/13 10:38:08;;;;;;;9.83;8.83;;;6.20;99.90;;;;;;4956907;28;20652;-92
2021/12/13 10:40:56;;;;;;;13.37;8.97;;;6.30;99.90;;;;;;4957482;28;20176;-92
2021/12/13 10:43:36;;;;;;;11.60;9.00;;;6.40;99.90;;;;;;4960955;28;20228;-92
2021/12/13 10:46:07;;;;;;;10.40;8.83;;;6.40;99.90;;;;;;4960097;28;20709;-93
2021/12/13 10:48:36;;;;;;;11.53;9.00;;;6.40;99.90;;;;;;5029758;28;20205;-92
2021/12/13 10:51:10;;;;;;;11.87;9.27;;;6.50;99.90;;;;;;5051281;28;20211;-91
2021/12/13 10:53:37;;;;;;;10.50;8.77;;;6.40;99.60;;;;;;5044445;28;20186;-92
2021/12/13 10:56:10;;;;;;;14.87;9.00;;;6.40;99.90;;;;;;5044120;28;20180;-92
2021/12/13 10:58:43;;;;;;;11.57;9.07;;;6.40;99.90;;;;;;5048293;28;20192;-92
2021/12/13 11:01:32;;;;;;;12.27;9.90;;;6.40;99.90;;;;;;5043520;28;20186;-92
2021/12/13 11:04:03;;;;;;;12.37;9.30;;;6.30;99.90;;;;;;5038412;28;20184;-92
2021/12/13 11:06:30;;;;;;;10.47;9.30;;;6.50;99.90;;;;;;5036730;28;20161;-92
2021/12/13 11:08:56;;;;;;;15.93;9.77;;;6.50;99.90;;;;;;5036359;28;20214;-92
2021/12/13 11:11:36;;;;;;;10.67;9.10;;;6.50;99.90;;;;;;5037703;28;20607;-92
2021/12/13 11:14:07;;;;;;;13.70;9.93;;;6.60;99.90;;;;;;5033914;28;20173;-91
2021/12/13 11:16:44;;;;;;;12.13;8.93;;;6.50;99.90;;;;;;5034224;28;20268;-92
2021/12/13 11:19:13;;;;;;;12.93;9.00;;;6.50;99.90;;;;;;5033521;28;20164;-92
2021/12/13 11:21:43;;;;;;;13.97;8.90;;;6.50;99.90;;;;;;5035506;28;20274;-92
2021/12/13 11:24:17;;;;;;;11.43;9.07;;;6.50;99.90;;;;;;5033741;28;20257;-92
2021/12/13 11:26:45;;;;;;;10.17;8.47;;;6.50;99.90;;;;;;5034840;28;20191;-92
2021/12/13 11:29:14;;;;;;;11.97;8.30;;;6.60;99.90;;;;;;5034121;28;20315;-92
2021/12/13 11:31:52;;;;;;;9.73;8.70;;;6.70;99.90;;;;;;5046476;28;20191;-92
2021/12/13 11:34:57;;;;;;;12.53;7.93;;;6.70;99.90;;;;;;5052649;28;20193;-92
2021/12/13 11:38:04;;;;;;;13.30;8.80;;;6.80;99.90;;;;;;5049465;28;20172;-92
2021/12/13 11:40:45;;;;;;;14.13;8.30;;;6.80;99.60;;;;;;5034416;28;20217;-93
2021/12/13 11:43:35;;;;;;;9.87;7.80;;;6.80;99.90;;;;;;5045451;28;20224;-93
2021/12/13 11:46:27;;;;;;;12.40;7.87;;;6.80;99.90;;;;;;5044144;28;20161;-93
2021/12/13 11:49:18;;;;;;;9.77;7.80;;;6.90;99.90;;;;;;5038441;28;20196;-90
2021/12/13 11:52:12;;;;;;;8.40;7.60;;;6.80;99.90;;;;;;5043523;28;20175;-91
2021/12/13 11:55:07;;;;;;;9.33;7.70;;;6.80;99.90;;;;;;5045125;28;20211;-91
2021/12/13 11:58:20;;;;;;;9.40;7.80;;;6.80;99.80;;;;;;5045666;28;20168;-93
2021/12/13 12:01:23;;;;;;;9.20;7.40;;;6.80;99.90;;;;;;5060066;28;20188;-92
2021/12/13 12:04:07;;;;;;;10.93;8.03;;;6.80;99.30;;;;;;5042386;28;20570;-93
2021/12/13 12:07:01;;;;;;;11.07;7.63;;;6.70;99.20;;;;;;5041514;28;20251;-92
2021/12/13 12:09:42;;;;;;;8.93;7.03;;;6.60;99.90;;;;;;5044033;28;20196;-93
2021/12/13 12:12:32;;;;;;;7.70;6.90;;;6.70;99.80;;;;;;5033119;28;20186;-92
2021/12/13 12:15:01;;;;;;;10.43;7.03;;;6.80;99.20;;;;;;5037119;28;20186;-93
2021/12/13 12:17:30;;;;;;;8.23;7.30;;;6.80;99.90;;;;;;5029089;28;20190;-93
2021/12/13 12:20:00;;;;;;;10.37;7.77;;;7.00;99.90;;;;;;5032715;28;20703;-92
2021/12/13 12:22:50;;;;;;;8.67;7.37;;;6.90;98.90;;;;;;5024820;28;20227;-92
2021/12/13 12:25:21;;;;;;;9.23;7.10;;;6.80;99.70;;;;;;5023653;28;20205;-92
2021/12/13 12:27:51;;;;;;;10.93;7.47;;;6.70;99.90;;;;;;5022186;28;20229;-93
2021/12/13 12:30:21;;;;;;;9.67;7.87;;;6.70;99.90;;;;;;5017086;28;20204;-93
2021/12/13 12:32:52;;;;;;;15.33;8.10;;;6.70;99.90;;;;;;5015659;28;20182;-93
2021/12/13 12:35:31;;;;;;;13.53;9.33;;;6.70;99.90;;;;;;5015681;28;20566;-93
2021/12/13 12:37:56;;;;;;;11.77;8.33;;;6.80;99.30;;;;;;5016943;28;20228;-93
2021/12/13 12:40:47;;;;;;;13.30;8.37;;;6.70;99.60;;;;;;5016382;28;20187;-93
2021/12/13 12:43:16;;;;;;;10.10;7.60;;;6.70;99.30;;;;;;5015712;28;20232;-93
2021/12/13 12:46:04;;;;;;;12.20;7.67;;;6.70;99.40;;;;;;5015345;28;20272;-92
2021/12/13 12:48:35;;;;;;;12.07;7.73;;;6.60;99.60;;;;;;5017455;28;20269;-92
2021/12/13 12:51:21;;;;;;;10.93;7.50;;;6.60;99.50;;;;;;5017263;28;20689;-92
2021/12/13 12:54:05;;;;;;;12.83;8.90;;;6.80;99.60;;;;;;5020199;28;20192;-93
2021/12/13 12:56:44;;;;;;;12.67;9.57;;;6.80;98.90;;;;;;5017220;28;20634;-92
2021/12/13 12:59:16;;;;;;;14.13;9.17;;;6.70;99.30;;;;;;5024474;28;20268;-92
2021/12/13 13:01:57;;;;;;;11.27;8.20;;;6.60;99.30;;;;;;5018558;28;20182;-93
2021/12/13 13:04:38;;;;;;;9.47;7.30;;;6.60;99.10;;;;;;5014768;28;20211;-92
2021/12/13 13:07:04;;;;;;;10.30;8.30;;;6.50;99.80;;;;;;5014383;28;20220;-92
2021/12/13 13:09:47;;;;;;;10.17;8.30;;;6.50;99.50;;;;;;5014956;28;20220;-93
2021/12/13 13:12:24;;;;;;;10.23;8.60;;;6.50;99.90;;;;;;5015920;28;20254;-92
2021/12/13 13:14:56;;;;;;;13.27;8.60;;;6.50;99.90;;;;;;5018039;28;20183;-93
2021/12/13 13:17:25;;;;;;;14.13;8.53;;;6.60;99.70;;;;;;5030292;28;20223;-92
2021/12/13 13:19:59;;;;;;;11.13;8.37;;;6.50;99.90;;;;;;5028322;28;20185;-92
2021/12/13 13:22:36;;;;;;;12.87;8.40;;;6.50;99.90;;;;;;5038424;28;20176;-93
2021/12/13 13:25:18;;;;;;;14.77;8.97;;;6.50;99.80;;;;;;5021466;28;20721;-92
2021/12/13 13:27:44;;;;;;;12.93;9.23;;;6.50;99.80;;;;;;5019467;28;20219;-91
2021/12/13 13:30:34;;;;;;;12.20;9.17;;;6.50;99.90;;;;;;5017203;28;20266;-91
2021/12/13 13:33:00;;;;;;;10.83;8.73;;;6.40;99.90;;;;;;5015760;28;20180;-90
2021/12/13 13:35:26;;;;;;;10.13;8.23;;;6.40;99.90;;;;;;5032590;28;20187;-92
2021/12/13 13:37:52;;;;;;;12.80;8.77;;;6.40;99.90;;;;;;5030946;28;20242;-92
2021/12/13 13:40:25;;;;;;;14.77;8.53;;;6.40;99.90;;;;;;5023200;28;20195;-92
2021/12/13 13:42:59;;;;;;;11.27;8.97;;;6.40;99.90;;;;;;5016508;28;20966;-91
2021/12/13 13:45:35;;;;;;;10.43;8.83;;;6.30;99.90;;;;;;5018519;28;20168;-91
2021/12/13 13:48:07;;;;;;;15.80;8.47;;;6.20;99.90;;;;;;5034261;28;20219;-91